Terminal Aerodrome Forecast
Issued by NWS

Home | Current Version | Previous Version | Text Only | Print | Product List | Glossary On
Versions: 1 2 3 4 5 6 7 8 9 10 11 12 13 14 15 16 17 18 19 20 21 22 23 24 25 26 27 28 29 30
077
FTUS46 KOTX 240801 AAB
TAFPUW
TAF AMD
KPUW 240801Z 2408/2506 24010G20KT P6SM SCT020
     FM241200 21012KT P6SM SCT015 BKN200
     FM241900 23012G22KT P6SM SCT100 BKN200
     FM250400 12005KT P6SM SCT100 BKN200=

USA.gov is the U.S. government's official web portal to all federal, state and local government web resources and services.